Time;durP1;ratioP1;P1;durP2;ratioP2;P2;SDS_P1;SDS_P2;PMS_P1;PMS_P2;Temp;Humidity;BMP_temperature;BMP_pressure;BME280_temperature;BME280_humidity;BME280_pressure;Samples;Min_cycle;Max_cycle;Signal;HPM_P1;HPM_P2
2021/12/06 00:01:08;;;;;;;26.80;19.40;;;;;;;2.53;71.70;99594.89;105254;1333;22281;-85
2021/12/06 00:03:47;;;;;;;28.20;20.00;;;;;;;2.47;71.83;99593.63;105469;1331;23096;-84
2021/12/06 00:06:18;;;;;;;28.50;20.00;;;;;;;2.47;71.77;99595.18;105262;1333;22480;-83
2021/12/06 00:08:45;;;;;;;30.40;20.70;;;;;;;2.44;71.90;99599.84;105284;1333;22291;-83
2021/12/06 00:11:14;;;;;;;30.50;21.30;;;;;;;2.39;71.79;99604.48;105305;1331;22303;-90
2021/12/06 00:13:44;;;;;;;28.10;20.70;;;;;;;2.37;71.96;99609.67;105737;1326;22388;-90
2021/12/06 00:16:18;;;;;;;33.10;22.30;;;;;;;2.43;72.24;99610.60;106281;1320;23018;-89
2021/12/06 00:18:49;;;;;;;29.80;21.70;;;;;;;2.51;72.32;99612.27;106121;1325;22414;-89
2021/12/06 00:21:16;;;;;;;30.10;20.90;;;;;;;2.56;72.05;99612.15;105550;1331;22326;-90
2021/12/06 00:23:44;;;;;;;27.70;20.40;;;;;;;2.54;71.96;99611.42;105586;1331;22402;-89
2021/12/06 00:26:12;;;;;;;31.40;21.70;;;;;;;2.53;71.97;99613.68;105457;1331;23010;-88
2021/12/06 00:28:41;;;;;;;27.40;19.20;;;;;;;2.50;71.95;99615.91;105580;1331;22489;-88
2021/12/06 00:31:11;;;;;;;24.50;18.00;;;;;;;2.46;71.86;99619.85;104657;1331;22308;-86
2021/12/06 00:33:41;;;;;;;28.70;19.70;;;;;;;2.42;71.99;99618.61;105599;1331;23010;-86
2021/12/06 00:36:16;;;;;;;28.80;20.00;;;;;;;2.41;72.06;99616.84;105477;1331;22763;-85
2021/12/06 00:38:45;;;;;;;28.70;19.70;;;;;;;2.40;71.91;99615.61;105640;1326;22624;-86
2021/12/06 00:41:13;;;;;;;27.40;18.50;;;;;;;2.36;72.07;99616.45;104969;1325;22823;-85
2021/12/06 00:43:40;;;;;;;28.80;20.30;;;;;;;2.36;72.00;99616.60;106468;1325;22389;-85
2021/12/06 00:46:07;;;;;;;28.20;20.50;;;;;;;2.33;72.13;99620.56;106612;1325;22353;-85
2021/12/06 00:48:34;;;;;;;26.40;18.50;;;;;;;2.30;72.23;99619.84;104978;1325;22317;-81
2021/12/06 00:51:02;;;;;;;28.00;18.80;;;;;;;2.30;72.33;99622.27;104950;1329;22382;-81
2021/12/06 00:53:29;;;;;;;27.20;19.60;;;;;;;2.29;72.47;99619.83;106436;1325;22325;-81
2021/12/06 00:55:57;;;;;;;25.20;18.20;;;;;;;2.32;72.44;99622.30;106396;1325;22433;-80
2021/12/06 00:58:24;;;;;;;27.40;19.10;;;;;;;2.36;72.52;99628.08;106177;1325;22409;-80
2021/12/06 01:00:53;;;;;;;26.50;19.10;;;;;;;2.33;72.26;99632.91;106324;1325;23063;-80
2021/12/06 01:03:26;;;;;;;26.40;18.90;;;;;;;2.30;72.36;99638.60;106378;1325;22402;-79
2021/12/06 01:05:54;;;;;;;26.40;18.70;;;;;;;2.24;72.20;99639.23;106303;1325;22333;-79
2021/12/06 01:08:22;;;;;;;25.10;18.30;;;;;;;2.26;72.45;99639.42;106409;1325;23097;-79
2021/12/06 01:10:50;;;;;;;26.40;18.70;;;;;;;2.33;72.71;99636.39;106239;1325;22382;-81
2021/12/06 01:13:17;;;;;;;25.50;17.70;;;;;;;2.40;72.43;99631.25;106427;1326;22398;-81
2021/12/06 01:15:45;;;;;;;25.00;18.40;;;;;;;2.42;72.39;99624.50;106385;1325;22214;-81
2021/12/06 01:18:16;;;;;;;22.30;16.90;;;;;;;2.45;72.41;99618.98;106029;1325;22327;-82
2021/12/06 01:20:55;;;;;;;25.30;17.80;;;;;;;2.38;72.10;99614.73;105836;1325;22450;-82
2021/12/06 01:23:28;;;;;;;25.50;18.10;;;;;;;2.33;72.18;99620.23;105901;1325;22360;-83
2021/12/06 01:31:12;;;;;;;25.70;19.20;;;;;;;2.33;72.72;99620.22;106224;1325;22832;-81
2021/12/06 01:34:04;;;;;;;26.70;17.90;;;;;;;2.35;72.72;99623.73;106026;1325;23150;-82
2021/12/06 01:39:20;;;;;;;26.70;18.00;;;;;;;2.46;72.51;99626.80;106027;1325;22454;-82
2021/12/06 01:41:53;;;;;;;25.20;17.30;;;;;;;2.48;72.36;99629.96;105652;1327;22567;-87
2021/12/06 01:44:23;;;;;;;29.80;18.40;;;;;;;2.50;72.29;99631.90;105855;1319;22544;-87
2021/12/06 01:47:24;;;;;;;24.70;17.20;;;;;;;2.51;72.37;99635.20;106197;1325;22360;-88
2021/12/06 01:49:55;;;;;;;22.50;15.60;;;;;;;2.53;72.40;99644.95;105877;1325;22376;-86
2021/12/06 01:52:33;;;;;;;24.00;15.30;;;;;;;2.50;72.20;99644.58;106126;1325;22199;-87
2021/12/06 01:55:26;;;;;;;25.70;17.60;;;;;;;2.49;72.36;99649.61;106194;1325;22205;-82
2021/12/06 01:57:54;;;;;;;22.20;16.10;;;;;;;2.46;72.16;99655.84;106076;1325;22375;-79
2021/12/06 02:00:32;;;;;;;24.20;17.50;;;;;;;2.45;72.33;99662.25;106190;1325;22514;-79
2021/12/06 02:03:02;;;;;;;23.50;15.60;;;;;;;2.50;72.40;99664.57;105979;1325;22206;-77
2021/12/06 02:05:35;;;;;;;24.90;16.60;;;;;;;2.51;72.27;99664.75;104861;1333;22364;-84
2021/12/06 02:08:05;;;;;;;24.60;16.40;;;;;;;2.50;72.11;99664.91;106001;1325;22480;-86
2021/12/06 02:10:34;;;;;;;24.70;16.80;;;;;;;2.51;72.22;99662.33;106019;1325;22373;-76
2021/12/06 02:13:04;;;;;;;21.40;15.50;;;;;;;2.57;72.25;99656.83;106114;1325;22567;-83
2021/12/06 02:15:45;;;;;;;25.30;16.10;;;;;;;2.58;72.14;99654.41;106319;1325;22310;-84
2021/12/06 02:18:28;;;;;;;19.40;14.70;;;;;;;2.60;72.14;99654.77;106222;1325;22454;-83
2021/12/06 02:21:08;;;;;;;23.70;15.90;;;;;;;2.56;72.04;99653.34;106165;1325;22277;-83
2021/12/06 02:23:35;;;;;;;24.50;16.50;;;;;;;2.56;72.22;99653.52;106136;1325;22552;-84
2021/12/06 02:26:02;;;;;;;23.30;16.40;;;;;;;2.53;72.09;99657.81;105966;1325;22233;-84
2021/12/06 02:28:29;;;;;;;23.20;15.40;;;;;;;2.47;72.15;99652.02;106152;1325;22384;-83
2021/12/06 02:30:58;;;;;;;22.80;15.40;;;;;;;2.52;72.21;99661.46;105092;1325;22778;-84
2021/12/06 02:33:25;;;;;;;25.00;16.40;;;;;;;2.54;72.13;99662.54;106380;1325;23183;-84
2021/12/06 02:35:54;;;;;;;26.50;15.60;;;;;;;2.61;72.12;99665.58;106229;1325;22355;-84
2021/12/06 02:38:21;;;;;;;21.20;15.10;;;;;;;2.63;71.95;99662.45;105813;1324;22312;-84
2021/12/06 02:40:48;;;;;;;18.90;13.80;;;;;;;2.55;71.81;99657.50;105906;1325;22426;-85
2021/12/06 02:43:15;;;;;;;20.60;14.70;;;;;;;2.59;71.91;99664.49;106117;1325;22216;-83
2021/12/06 02:45:43;;;;;;;22.50;15.50;;;;;;;2.53;71.72;99665.30;105967;1325;22351;-80
2021/12/06 02:48:12;;;;;;;19.30;14.50;;;;;;;2.48;71.95;99663.86;105912;1325;22282;-81
2021/12/06 02:50:52;;;;;;;20.30;14.80;;;;;;;2.45;72.08;99663.81;106338;1325;22452;-82
2021/12/06 02:53:23;;;;;;;19.50;14.90;;;;;;;2.46;72.26;99661.73;104849;1338;22299;-82
2021/12/06 02:55:54;;;;;;;21.30;15.70;;;;;;;2.49;72.28;99668.39;106540;1325;22370;-88
2021/12/06 02:59:01;;;;;;;19.90;13.30;;;;;;;2.43;72.08;99659.27;105744;1325;22994;-88
2021/12/06 03:01:25;;;;;;;21.50;14.10;;;;;;;2.41;72.08;99667.42;105948;1327;22428;-84
2021/12/06 03:03:55;;;;;;;19.70;13.60;;;;;;;2.36;72.04;99667.70;106136;1325;23102;-86
2021/12/06 03:06:25;;;;;;;18.80;13.10;;;;;;;2.39;72.15;99672.96;105971;1327;22269;-83
2021/12/06 03:09:06;;;;;;;19.50;14.70;;;;;;;2.32;72.03;99671.64;106222;1325;22223;-80
2021/12/06 03:11:38;;;;;;;19.40;13.90;;;;;;;2.30;72.60;99673.52;106331;1325;22482;-81
2021/12/06 03:14:08;;;;;;;18.80;14.70;;;;;;;2.35;72.69;99671.16;106146;1325;22659;-81
2021/12/06 03:16:36;;;;;;;21.90;14.60;;;;;;;2.38;72.64;99671.38;106364;1324;22662;-79
2021/12/06 03:19:06;;;;;;;20.40;14.70;;;;;;;2.42;72.69;99670.38;106223;1325;22343;-79
2021/12/06 03:21:33;;;;;;;16.70;13.20;;;;;;;2.45;72.64;99668.84;106006;1325;22553;-79
2021/12/06 03:24:00;;;;;;;19.30;13.50;;;;;;;2.39;72.45;99668.96;106261;1325;22353;-79
2021/12/06 03:26:29;;;;;;;19.20;13.90;;;;;;;2.42;72.56;99669.86;106304;1325;22441;-79
2021/12/06 03:28:57;;;;;;;16.30;12.40;;;;;;;2.40;72.47;99669.14;106412;1324;23131;-80
2021/12/06 03:31:25;;;;;;;15.10;12.00;;;;;;;2.42;72.45;99669.34;105438;1331;23027;-86
2021/12/06 03:33:55;;;;;;;17.20;12.60;;;;;;;2.39;72.52;99670.17;105425;1333;22359;-85
2021/12/06 03:36:24;;;;;;;14.80;11.30;;;;;;;2.46;72.66;99674.44;105402;1333;22290;-85
2021/12/06 03:38:53;;;;;;;13.10;10.70;;;;;;;2.45;72.45;99671.81;105203;1334;22681;-79
2021/12/06 03:41:23;;;;;;;14.90;11.50;;;;;;;2.42;72.34;99671.25;105188;1334;22376;-81
2021/12/06 03:43:51;;;;;;;15.00;11.80;;;;;;;2.41;72.52;99674.72;105425;1332;22610;-83
2021/12/06 03:46:22;;;;;;;17.80;13.00;;;;;;;2.42;72.67;99675.08;105188;1333;22278;-86
2021/12/06 03:48:49;;;;;;;14.80;11.00;;;;;;;2.42;72.53;99677.16;105238;1327;22806;-79
2021/12/06 03:51:16;;;;;;;12.60;10.10;;;;;;;2.42;72.55;99677.52;105983;1327;22366;-82
2021/12/06 03:53:44;;;;;;;12.80;9.60;;;;;;;2.45;72.56;99677.20;106227;1325;23069;-91
2021/12/06 03:56:13;;;;;;;12.70;9.90;;;;;;;2.48;72.46;99681.23;106446;1311;22421;-91
2021/12/06 03:58:40;;;;;;;12.60;9.30;;;;;;;2.53;72.54;99684.77;106390;1314;22268;-92
2021/12/06 04:01:08;;;;;;;12.70;10.20;;;;;;;2.45;72.11;99681.89;106410;1325;22830;-89
2021/12/06 04:03:38;;;;;;;11.00;8.80;;;;;;;2.45;72.42;99686.41;106340;1325;22399;-89
2021/12/06 04:06:06;;;;;;;10.40;8.30;;;;;;;2.45;72.22;99691.28;106316;1325;22354;-86
2021/12/06 04:08:34;;;;;;;10.00;8.40;;;;;;;2.40;72.19;99695.21;105576;1330;22320;-85
2021/12/06 04:11:02;;;;;;;10.70;8.80;;;;;;;2.37;72.30;99697.77;105535;1330;22383;-85
2021/12/06 04:13:31;;;;;;;11.50;8.70;;;;;;;2.35;72.53;99702.79;105438;1329;22278;-90
2021/12/06 04:16:00;;;;;;;11.30;8.10;;;;;;;2.34;72.28;99704.52;105702;1330;22493;-91
2021/12/06 04:18:27;;;;;;;12.10;8.50;;;;;;;2.31;72.24;99704.99;105527;1331;22276;-91
2021/12/06 04:20:54;;;;;;;12.60;8.90;;;;;;;2.32;72.28;99703.96;105446;1332;22304;-90
2021/12/06 04:23:23;;;;;;;13.30;9.80;;;;;;;2.39;72.54;99709.98;105575;1327;22377;-91
2021/12/06 04:25:50;;;;;;;11.40;9.10;;;;;;;2.45;72.52;99710.41;105664;1329;23256;-90
2021/12/06 04:28:19;;;;;;;12.40;9.40;;;;;;;2.44;72.21;99713.51;106399;1321;22328;-91
2021/12/06 04:30:49;;;;;;;15.10;10.00;;;;;;;2.42;72.33;99720.61;106765;1319;22209;-91
2021/12/06 04:33:17;;;;;;;11.60;9.40;;;;;;;2.41;72.30;99719.02;106799;1324;22339;-90
2021/12/06 04:35:45;;;;;;;13.40;9.80;;;;;;;2.37;72.14;99726.79;106775;1325;22444;-90
2021/12/06 04:38:13;;;;;;;14.80;10.50;;;;;;;2.30;72.02;99734.68;104981;1320;22207;-78
2021/12/06 04:40:41;;;;;;;13.80;11.00;;;;;;;2.24;72.27;99737.39;106143;1327;22502;-78
2021/12/06 04:43:09;;;;;;;15.20;11.20;;;;;;;2.30;72.51;99743.73;105956;1325;22215;-82
2021/12/06 04:45:37;;;;;;;14.20;11.10;;;;;;;2.35;72.23;99749.36;106014;1325;22411;-81
2021/12/06 04:48:07;;;;;;;16.00;11.90;;;;;;;2.39;72.31;99756.52;105907;1325;22479;-78
2021/12/06 04:50:36;;;;;;;15.60;11.40;;;;;;;2.41;72.10;99762.14;106125;1327;22245;-79
2021/12/06 04:53:11;;;;;;;15.70;11.90;;;;;;;2.37;71.97;99764.34;106091;1325;23099;-78
2021/12/06 04:55:59;;;;;;;15.20;11.80;;;;;;;2.33;72.03;99768.10;105999;1325;22410;-78
2021/12/06 04:58:29;;;;;;;17.90;12.70;;;;;;;2.31;72.18;99772.77;104909;1336;22272;-79
2021/12/06 05:01:12;;;;;;;16.50;11.30;;;;;;;2.20;72.01;99768.61;104781;1337;22288;-77
2021/12/06 05:03:40;;;;;;;16.60;12.20;;;;;;;2.19;72.28;99781.45;104576;1336;22927;-79
2021/12/06 05:06:16;;;;;;;18.40;12.90;;;;;;;2.20;72.53;99782.16;104712;1336;22271;-80
2021/12/06 05:08:47;;;;;;;18.60;13.50;;;;;;;2.21;72.65;99783.39;104807;1334;22875;-79
2021/12/06 05:11:17;;;;;;;16.40;12.50;;;;;;;2.23;72.69;99783.24;104847;1333;22312;-80
2021/12/06 05:13:46;;;;;;;25.20;16.20;;;;;;;2.29;72.70;99791.49;104572;1337;22942;-79
2021/12/06 05:16:14;;;;;;;17.00;12.10;;;;;;;2.36;72.57;99791.27;104762;1337;23107;-81
2021/12/06 05:18:42;;;;;;;16.50;12.70;;;;;;;2.37;72.52;99785.19;104821;1337;22409;-81
2021/12/06 05:21:10;;;;;;;21.30;14.20;;;;;;;2.40;72.47;99784.55;104716;1336;22297;-77
2021/12/06 05:23:38;;;;;;;18.30;12.90;;;;;;;2.42;72.28;99786.14;104796;1333;22529;-77
2021/12/06 05:26:05;;;;;;;14.60;12.00;;;;;;;2.42;72.23;99782.82;104511;1343;23181;-77
2021/12/06 05:28:39;;;;;;;17.80;13.00;;;;;;;2.41;72.24;99779.51;104490;1342;209302;-77
2021/12/06 05:31:14;;;;;;;16.20;12.40;;;;;;;2.41;72.10;99771.52;104601;1342;22276;-77
2021/12/06 05:33:44;;;;;;;18.40;13.70;;;;;;;2.37;72.18;99768.16;104510;1337;22409;-78
2021/12/06 05:36:11;;;;;;;18.50;12.30;;;;;;;2.30;71.92;99768.40;105329;1333;22282;-78
2021/12/06 05:38:38;;;;;;;21.70;13.90;;;;;;;2.21;72.09;99764.98;105499;1331;23105;-77
2021/12/06 05:41:06;;;;;;;17.10;12.70;;;;;;;2.13;71.76;99762.60;105511;1324;23025;-79
2021/12/06 05:43:33;;;;;;;15.40;11.70;;;;;;;2.11;72.23;99757.19;105362;1325;22397;-80
2021/12/06 05:46:02;;;;;;;15.60;12.10;;;;;;;2.12;72.46;99750.96;106134;1326;22328;-80
2021/12/06 05:48:29;;;;;;;18.60;12.00;;;;;;;2.22;72.45;99756.14;106252;1325;22381;-80
2021/12/06 05:50:56;;;;;;;16.40;11.50;;;;;;;2.21;72.08;99750.54;106371;1322;22475;-80
2021/12/06 05:53:24;;;;;;;16.20;11.60;;;;;;;2.07;71.90;99751.91;106286;1318;22447;-87
2021/12/06 05:55:51;;;;;;;17.00;11.60;;;;;;;2.06;72.36;99748.94;106130;1322;22401;-77
2021/12/06 05:58:21;;;;;;;15.00;11.50;;;;;;;2.06;72.36;99741.81;106432;1323;22387;-78
2021/12/06 06:00:49;;;;;;;17.60;12.30;;;;;;;2.06;72.41;99741.64;106336;1325;22343;-78
2021/12/06 06:03:16;;;;;;;17.50;12.80;;;;;;;2.01;72.30;99739.14;106264;1325;22304;-78
2021/12/06 06:05:44;;;;;;;17.50;12.80;;;;;;;1.98;72.53;99746.07;106362;1325;22364;-79
2021/12/06 06:08:11;;;;;;;15.70;11.00;;;;;;;2.03;72.66;99746.11;106219;1325;22498;-79
2021/12/06 06:10:38;;;;;;;17.00;11.70;;;;;;;2.05;72.59;99745.98;106251;1326;22436;-79
2021/12/06 06:13:07;;;;;;;15.10;11.00;;;;;;;2.10;72.63;99749.16;106148;1326;22949;-79
2021/12/06 06:15:35;;;;;;;17.90;12.70;;;;;;;2.14;72.70;99751.33;106038;1328;22305;-78
2021/12/06 06:18:04;;;;;;;16.00;11.40;;;;;;;2.19;72.47;99757.13;105976;1328;22364;-79
2021/12/06 06:20:44;;;;;;;15.90;11.30;;;;;;;2.16;72.47;99756.75;106123;1327;22477;-78
2021/12/06 06:23:11;;;;;;;16.70;12.10;;;;;;;2.11;72.31;99764.83;106255;1326;22217;-79
2021/12/06 06:25:38;;;;;;;15.10;11.10;;;;;;;2.07;72.50;99771.20;106240;1325;22488;-80
2021/12/06 06:28:06;;;;;;;15.70;11.90;;;;;;;2.10;72.69;99779.05;106116;1325;22511;-78
2021/12/06 06:30:33;;;;;;;17.10;13.00;;;;;;;2.15;72.76;99782.95;106338;1326;22333;-80
2021/12/06 06:33:01;;;;;;;15.80;11.80;;;;;;;2.15;72.59;99791.63;106157;1325;22389;-78
2021/12/06 06:35:28;;;;;;;19.30;13.30;;;;;;;2.17;72.73;99799.66;104974;1328;22448;-84
2021/12/06 06:37:55;;;;;;;19.20;14.30;;;;;;;2.21;72.45;99812.75;106416;1325;23028;-84
2021/12/06 06:40:23;;;;;;;20.20;14.50;;;;;;;2.17;72.37;99818.44;106302;1325;22516;-83
2021/12/06 06:42:50;;;;;;;21.40;14.50;;;;;;;2.14;72.48;99824.13;106294;1325;22414;-84
2021/12/06 06:45:20;;;;;;;19.90;14.10;;;;;;;2.18;72.72;99836.02;106431;1320;22401;-83
2021/12/06 06:47:48;;;;;;;22.00;15.30;;;;;;;2.20;72.50;99840.36;105990;1328;22422;-83
2021/12/06 06:50:16;;;;;;;19.80;13.90;;;;;;;2.19;72.52;99845.02;106223;1325;23217;-83
2021/12/06 06:52:43;;;;;;;19.30;14.20;;;;;;;2.23;72.66;99851.88;106248;1325;22469;-83
2021/12/06 06:55:11;;;;;;;22.50;14.60;;;;;;;2.22;72.43;99854.64;106339;1318;22431;-84
2021/12/06 06:57:39;;;;;;;24.00;14.90;;;;;;;2.20;72.64;99858.96;106508;1325;22275;-83
2021/12/06 07:00:17;;;;;;;22.00;15.00;;;;;;;2.22;72.61;99867.33;106542;1325;22426;-84
2021/12/06 07:02:45;;;;;;;24.60;15.60;;;;;;;2.26;72.53;99869.47;106186;1325;22496;-82
2021/12/06 07:05:13;;;;;;;26.90;16.60;;;;;;;2.30;72.45;99873.89;106613;1319;22487;-77
2021/12/06 07:07:41;;;;;;;24.40;16.50;;;;;;;2.30;72.36;99866.91;106195;1319;22558;-79
2021/12/06 07:10:09;;;;;;;22.50;16.10;;;;;;;2.34;72.33;99872.20;106305;1323;22385;-80
2021/12/06 07:12:44;;;;;;;24.30;16.90;;;;;;;2.39;72.46;99865.15;106321;1325;22489;-78
2021/12/06 07:15:14;;;;;;;23.90;16.00;;;;;;;2.38;72.20;99854.55;106611;1325;22343;-83
2021/12/06 07:17:43;;;;;;;22.70;15.50;;;;;;;2.40;72.35;99853.37;106506;1325;23209;-83
2021/12/06 07:20:12;;;;;;;24.10;17.70;;;;;;;2.41;72.17;99845.73;106528;1319;22381;-86
2021/12/06 07:22:39;;;;;;;26.90;17.70;;;;;;;2.38;72.03;99844.12;106480;1319;23126;-84
2021/12/06 07:25:07;;;;;;;23.90;15.70;;;;;;;2.33;72.04;99842.30;106263;1322;23190;-84
2021/12/06 07:27:36;;;;;;;26.60;16.70;;;;;;;2.31;72.09;99847.30;106458;1323;22490;-85
2021/12/06 07:30:07;;;;;;;25.70;16.90;;;;;;;2.27;71.91;99846.71;105880;1325;22364;-78
2021/12/06 07:32:34;;;;;;;26.00;17.10;;;;;;;2.26;71.90;99842.20;105863;1324;23230;-78
2021/12/06 07:35:04;;;;;;;25.00;15.90;;;;;;;2.22;72.04;99842.48;105475;1327;23145;-79
2021/12/06 07:37:31;;;;;;;27.20;17.30;;;;;;;2.21;72.15;99848.55;104913;1331;22331;-76
2021/12/06 07:39:59;;;;;;;27.10;16.70;;;;;;;2.19;71.97;99856.33;105887;1324;22335;-78
2021/12/06 07:42:26;;;;;;;29.30;19.70;;;;;;;2.13;72.03;99856.06;105653;1325;22469;-76
2021/12/06 07:44:53;;;;;;;30.80;19.40;;;;;;;2.08;72.06;99853.02;105264;1324;22301;-76
2021/12/06 07:47:21;;;;;;;30.60;19.00;;;;;;;2.09;72.34;99848.35;105144;1330;23015;-77
2021/12/06 07:49:49;;;;;;;30.10;19.30;;;;;;;2.11;72.19;99844.21;105026;1337;23025;-77
2021/12/06 07:52:26;;;;;;;29.50;18.80;;;;;;;2.04;72.19;99847.06;105118;1331;23392;-77
2021/12/06 07:54:58;;;;;;;33.10;18.90;;;;;;;2.02;72.19;99849.80;105749;1328;22543;-77
2021/12/06 07:57:26;;;;;;;34.20;20.40;;;;;;;2.00;72.26;99861.04;105291;1331;22385;-77
2021/12/06 07:59:54;;;;;;;31.50;20.40;;;;;;;1.99;72.30;99864.86;105748;1330;23186;-78
2021/12/06 08:02:21;;;;;;;34.50;21.20;;;;;;;2.01;72.39;99870.28;105786;1330;22468;-78
2021/12/06 08:04:58;;;;;;;32.40;21.10;;;;;;;2.06;72.61;99870.69;105604;1331;23077;-78
2021/12/06 08:07:25;;;;;;;32.60;21.20;;;;;;;2.05;72.26;99873.45;105823;1329;23064;-76
2021/12/06 08:09:53;;;;;;;34.10;21.00;;;;;;;2.02;72.25;99872.36;105686;1325;23197;-77
2021/12/06 08:12:20;;;;;;;33.80;20.90;;;;;;;2.02;72.60;99865.09;106120;1325;22243;-77
2021/12/06 08:14:47;;;;;;;31.60;20.60;;;;;;;2.05;72.40;99868.08;106151;1325;22941;-77
2021/12/06 08:17:15;;;;;;;33.40;20.50;;;;;;;1.98;72.22;99863.80;106403;1325;23049;-77
2021/12/06 08:19:42;;;;;;;32.90;21.00;;;;;;;1.86;72.13;99865.15;106103;1328;22509;-78
2021/12/06 08:22:09;;;;;;;36.10;20.70;;;;;;;1.86;72.60;99869.14;106216;1325;22270;-78
2021/12/06 08:24:36;;;;;;;38.60;22.70;;;;;;;1.87;72.52;99869.00;106101;1321;22374;-78
2021/12/06 08:27:03;;;;;;;35.50;21.30;;;;;;;1.91;72.41;99878.44;106331;1318;23107;-75
2021/12/06 08:29:30;;;;;;;37.40;22.90;;;;;;;1.83;72.28;99878.13;105542;1330;22923;-76
2021/12/06 08:31:57;;;;;;;34.50;21.50;;;;;;;1.85;72.61;99887.37;105568;1330;23125;-77
2021/12/06 08:34:25;;;;;;;36.80;22.10;;;;;;;1.93;72.88;99895.50;105389;1332;22488;-77
2021/12/06 08:36:52;;;;;;;32.00;19.50;;;;;;;1.96;72.62;99899.91;105701;1325;22573;-77
2021/12/06 08:39:19;;;;;;;32.20;21.30;;;;;;;2.00;72.65;99902.91;105699;1330;22451;-82
2021/12/06 08:41:46;;;;;;;32.80;21.10;;;;;;;2.06;72.64;99905.27;105538;1331;23045;-76
2021/12/06 08:44:14;;;;;;;33.80;21.80;;;;;;;2.08;72.30;99908.61;105557;1330;22697;-83
2021/12/06 08:46:41;;;;;;;30.80;21.10;;;;;;;2.09;72.33;99910.70;105586;1325;22487;-86
2021/12/06 08:49:10;;;;;;;32.50;19.60;;;;;;;2.11;72.15;99909.02;106170;1327;22499;-84
2021/12/06 08:51:44;;;;;;;37.00;23.30;;;;;;;2.03;71.84;99907.65;106413;1325;22455;-82
2021/12/06 08:54:12;;;;;;;34.00;21.20;;;;;;;2.02;72.10;99917.02;105983;1326;22536;-82
2021/12/06 08:56:40;;;;;;;36.50;21.80;;;;;;;2.01;71.91;99916.65;106144;1318;23293;-80
2021/12/06 08:59:08;;;;;;;33.90;22.30;;;;;;;2.03;72.08;99917.38;106332;1325;22469;-83
2021/12/06 09:01:39;;;;;;;33.90;21.10;;;;;;;2.13;72.01;99922.77;106344;1325;22361;-80
2021/12/06 09:04:33;;;;;;;35.20;22.00;;;;;;;2.19;71.68;99931.55;106199;1325;23097;-82
2021/12/06 09:07:03;;;;;;;31.70;20.20;;;;;;;2.19;71.39;99932.95;106327;1324;22868;-82
2021/12/06 09:09:30;;;;;;;34.80;21.60;;;;;;;2.17;71.28;99928.06;106122;1326;22560;-83
2021/12/06 09:11:57;;;;;;;35.60;21.80;;;;;;;2.12;71.26;99921.70;105276;1325;22290;-82
2021/12/06 09:14:25;;;;;;;33.20;20.60;;;;;;;2.01;71.01;99924.13;106294;1324;22523;-82
2021/12/06 09:16:52;;;;;;;31.00;20.20;;;;;;;1.87;71.18;99933.94;106419;1324;22619;-79
2021/12/06 09:19:19;;;;;;;38.10;23.20;;;;;;;1.82;71.66;99935.57;106405;1325;22567;-83
2021/12/06 09:21:47;;;;;;;37.10;22.10;;;;;;;1.90;71.84;99931.56;106373;1319;22453;-84
2021/12/06 09:24:17;;;;;;;34.30;22.00;;;;;;;1.99;71.79;99933.27;106457;1321;22425;-85
2021/12/06 09:26:46;;;;;;;39.40;23.30;;;;;;;2.10;71.86;99938.52;106542;1325;22391;-84
2021/12/06 09:29:13;;;;;;;37.10;23.10;;;;;;;2.17;71.41;99945.59;106415;1324;23216;-84
2021/12/06 09:31:40;;;;;;;36.30;23.00;;;;;;;2.17;71.37;99945.77;106510;1319;22304;-84
2021/12/06 09:34:08;;;;;;;29.00;19.90;;;;;;;2.18;71.30;99943.73;106287;1325;22863;-82
2021/12/06 09:36:36;;;;;;;34.00;22.50;;;;;;;2.14;71.05;99943.61;106249;1325;22402;-84
2021/12/06 09:39:05;;;;;;;35.00;21.40;;;;;;;2.11;71.16;99940.27;106447;1322;22245;-84
2021/12/06 09:41:34;;;;;;;35.40;21.60;;;;;;;2.07;71.01;99938.45;104861;1330;23174;-83
2021/12/06 09:44:05;;;;;;;33.30;20.90;;;;;;;2.02;71.08;99942.03;106484;1324;22411;-84
2021/12/06 09:46:37;;;;;;;30.90;21.70;;;;;;;2.00;71.13;99940.95;106294;1326;22450;-84
2021/12/06 09:49:08;;;;;;;30.00;20.50;;;;;;;1.98;71.28;99933.80;106384;1326;22478;-83
2021/12/06 09:51:38;;;;;;;35.90;21.90;;;;;;;2.03;71.26;99936.49;106266;1325;23025;-83
2021/12/06 09:54:05;;;;;;;33.50;21.90;;;;;;;2.02;71.13;99929.70;106500;1326;22171;-83
2021/12/06 09:56:37;;;;;;;33.90;22.90;;;;;;;2.05;71.32;99927.66;106585;1325;22547;-83
2021/12/06 09:59:09;;;;;;;38.90;21.90;;;;;;;2.09;71.10;99921.48;106587;1323;22440;-85
2021/12/06 10:01:48;;;;;;;39.40;24.10;;;;;;;2.08;71.06;99919.20;106556;1325;22478;-84
2021/12/06 10:04:16;;;;;;;38.10;24.30;;;;;;;2.08;71.11;99924.76;106483;1325;22312;-83
2021/12/06 10:06:45;;;;;;;32.00;22.60;;;;;;;2.10;71.18;99923.74;106539;1326;22428;-85
2021/12/06 10:09:14;;;;;;;37.90;23.60;;;;;;;2.08;71.00;99916.59;106507;1325;22371;-85
2021/12/06 10:11:43;;;;;;;35.50;23.30;;;;;;;2.03;70.91;99916.52;106530;1319;22326;-84
2021/12/06 10:14:12;;;;;;;33.30;21.70;;;;;;;1.99;70.89;99920.25;105551;1332;22429;-84
2021/12/06 10:16:39;;;;;;;31.10;21.20;;;;;;;1.91;70.85;99920.80;105610;1324;22280;-82
2021/12/06 10:19:07;;;;;;;32.50;20.70;;;;;;;1.82;70.81;99922.73;105390;1333;22513;-84
2021/12/06 10:21:36;;;;;;;37.30;23.70;;;;;;;1.78;71.12;99923.34;105564;1333;22448;-85
2021/12/06 10:24:10;;;;;;;41.90;25.60;;;;;;;1.80;71.29;99922.87;105702;1324;22381;-84
2021/12/06 10:26:37;;;;;;;37.50;23.40;;;;;;;1.88;71.57;99921.80;105707;1332;22367;-86
2021/12/06 10:29:08;;;;;;;39.00;23.70;;;;;;;1.95;71.44;99918.11;105719;1333;22398;-83
2021/12/06 10:31:41;;;;;;;40.90;24.80;;;;;;;2.00;71.29;99914.73;105688;1325;22577;-84
2021/12/06 10:34:08;;;;;;;42.10;25.80;;;;;;;1.98;71.11;99912.97;106587;1325;22390;-85
2021/12/06 10:36:35;;;;;;;39.40;24.20;;;;;;;1.96;71.14;99912.39;106452;1325;22207;-84
2021/12/06 10:39:08;;;;;;;35.00;22.80;;;;;;;1.98;71.14;99922.51;106294;1322;22507;-77
2021/12/06 10:41:38;;;;;;;37.50;24.20;;;;;;;1.97;71.12;99925.08;106356;1325;22549;-81
2021/12/06 10:44:10;;;;;;;36.40;23.30;;;;;;;2.00;71.16;99923.23;106387;1319;22439;-76
2021/12/06 10:46:43;;;;;;;38.70;24.90;;;;;;;2.02;71.27;99930.39;106287;1325;23014;-79
2021/12/06 10:49:14;;;;;;;34.80;22.50;;;;;;;2.01;70.89;99927.59;105219;1334;22334;-75
2021/12/06 10:51:42;;;;;;;37.80;22.20;;;;;;;2.00;71.07;99930.35;105495;1333;22271;-76
2021/12/06 10:54:20;;;;;;;36.70;23.10;;;;;;;2.02;71.05;99936.30;105325;1334;22275;-78
2021/12/06 10:56:52;;;;;;;40.90;24.10;;;;;;;2.03;70.92;99936.48;105401;1333;22927;-79
2021/12/06 10:59:19;;;;;;;39.10;23.10;;;;;;;2.05;70.89;99937.23;105193;1329;22376;-79
2021/12/06 11:01:49;;;;;;;35.80;23.50;;;;;;;2.07;70.73;99939.85;105354;1329;22637;-79
2021/12/06 11:04:19;;;;;;;35.60;22.30;;;;;;;2.02;70.62;99939.08;105303;1334;22388;-78
2021/12/06 11:06:51;;;;;;;33.40;22.60;;;;;;;2.01;71.01;99941.66;105591;1326;22381;-79
2021/12/06 11:09:25;;;;;;;37.60;23.80;;;;;;;2.00;70.74;99948.93;106402;1325;22417;-79
2021/12/06 11:11:57;;;;;;;36.90;22.30;;;;;;;1.87;70.31;99942.80;106423;1324;23155;-80
2021/12/06 11:14:27;;;;;;;36.80;23.70;;;;;;;1.69;70.50;99936.71;106449;1325;22220;-80
2021/12/06 11:17:18;;;;;;;31.20;21.60;;;;;;;1.61;70.67;99937.95;106385;1325;22425;-79
2021/12/06 11:19:50;;;;;;;32.90;21.60;;;;;;;1.58;71.10;99940.48;106392;1325;22348;-79
2021/12/06 11:22:23;;;;;;;31.10;20.00;;;;;;;1.55;70.99;99936.96;106352;1318;22423;-79
2021/12/06 11:24:54;;;;;;;34.70;21.30;;;;;;;1.57;71.26;99939.58;106073;1325;22386;-87
2021/12/06 11:27:29;;;;;;;33.50;22.20;;;;;;;1.63;71.24;99938.85;106138;1325;22918;-80
2021/12/06 11:30:11;;;;;;;34.10;21.70;;;;;;;1.70;71.17;99936.04;106392;1325;22493;-82
2021/12/06 11:32:43;;;;;;;29.90;21.00;;;;;;;1.73;71.07;99930.55;106148;1325;22500;-79
2021/12/06 11:35:16;;;;;;;36.50;22.40;;;;;;;1.79;71.03;99931.69;106277;1325;23095;-84
2021/12/06 11:37:49;;;;;;;33.40;22.70;;;;;;;1.82;71.10;99934.54;106396;1324;23097;-83